Time;durP1;ratioP1;P1;durP2;ratioP2;P2;SDS_P1;SDS_P2;PMS_P1;PMS_P2;Temp;Humidity;BMP_temperature;BMP_pressure;BME280_temperature;BME280_humidity;BME280_pressure;Samples;Min_cycle;Max_cycle;Signal;HPM_P1;HPM_P2
2022/09/21 00:01:55;;;;;;;11.70;4.60;;;9.40;99.90;;;;;;5071600;28;20394;-72
2022/09/21 00:04:21;;;;;;;8.60;4.80;;;9.40;99.90;;;;;;5072034;28;20376;-71
2022/09/21 00:06:47;;;;;;;16.07;4.97;;;9.50;99.90;;;;;;5071801;28;20514;-72
2022/09/21 00:09:12;;;;;;;12.48;5.47;;;9.50;99.90;;;;;;5071524;28;20386;-70
2022/09/21 00:11:38;;;;;;;9.57;4.53;;;9.50;99.90;;;;;;5071445;28;20452;-72
2022/09/21 00:14:09;;;;;;;10.05;5.18;;;9.50;99.90;;;;;;5071356;28;20762;-71
2022/09/21 00:16:35;;;;;;;8.85;4.95;;;9.60;99.90;;;;;;5071637;28;20856;-71
2022/09/21 00:19:01;;;;;;;8.43;4.40;;;9.60;99.90;;;;;;5071633;28;20380;-71
2022/09/21 00:21:27;;;;;;;7.90;3.92;;;9.70;99.90;;;;;;5071277;28;20391;-71
2022/09/21 00:23:53;;;;;;;7.03;4.00;;;9.90;99.90;;;;;;5071403;28;20434;-71
2022/09/21 00:26:21;;;;;;;8.77;4.10;;;9.90;99.90;;;;;;5071484;28;20590;-72
2022/09/21 00:28:53;;;;;;;11.70;4.43;;;9.80;99.90;;;;;;5071472;28;20463;-72
2022/09/21 00:31:19;;;;;;;13.02;4.93;;;9.70;99.90;;;;;;5070887;28;20372;-72
2022/09/21 00:33:44;;;;;;;10.10;5.00;;;9.70;99.90;;;;;;5071098;28;20425;-71
2022/09/21 00:36:13;;;;;;;11.53;5.00;;;9.70;99.90;;;;;;5071002;28;20387;-71
2022/09/21 00:38:39;;;;;;;9.93;5.43;;;9.70;99.90;;;;;;5071037;28;20860;-71
2022/09/21 00:41:06;;;;;;;8.50;4.97;;;9.70;99.90;;;;;;5071041;28;20860;-70
2022/09/21 00:43:37;;;;;;;8.38;4.75;;;9.60;99.90;;;;;;5070321;28;20398;-70
2022/09/21 00:46:07;;;;;;;7.80;4.72;;;9.60;99.90;;;;;;5071119;28;20410;-70
2022/09/21 00:48:33;;;;;;;9.35;5.30;;;9.70;99.90;;;;;;5071495;28;20395;-72
2022/09/21 00:51:03;;;;;;;8.25;5.07;;;9.60;99.90;;;;;;5070790;28;20380;-72
2022/09/21 00:53:28;;;;;;;9.95;4.60;;;9.60;99.90;;;;;;5071273;28;20386;-72
2022/09/21 00:55:57;;;;;;;12.87;4.77;;;9.60;99.90;;;;;;5071451;28;20459;-70
2022/09/21 00:58:29;;;;;;;12.15;4.82;;;9.50;99.90;;;;;;5053494;28;20388;-71
2022/09/21 01:00:57;;;;;;;9.45;4.70;;;9.50;99.90;;;;;;5052770;28;20397;-72
2022/09/21 01:03:23;;;;;;;6.68;4.30;;;9.50;99.90;;;;;;5071041;28;20398;-72
2022/09/21 01:05:48;;;;;;;9.70;5.30;;;9.40;99.90;;;;;;5070959;28;20521;-72
2022/09/21 01:08:16;;;;;;;9.20;5.10;;;9.40;99.90;;;;;;5070899;28;20414;-72
2022/09/21 01:11:00;;;;;;;11.20;4.28;;;9.40;99.90;;;;;;5070887;28;20388;-71
2022/09/21 01:13:53;;;;;;;9.73;5.30;;;9.40;99.90;;;;;;5071550;28;20779;-72
2022/09/21 01:16:39;;;;;;;14.43;6.40;;;9.30;99.90;;;;;;5072421;28;20380;-72
2022/09/21 01:19:44;;;;;;;14.43;5.60;;;9.20;99.90;;;;;;5072612;28;20383;-70
2022/09/21 01:22:45;;;;;;;9.95;4.90;;;9.30;99.90;;;;;;5058286;28;20391;-71
2022/09/21 01:25:13;;;;;;;12.18;5.38;;;9.40;99.90;;;;;;5067435;28;20430;-71
2022/09/21 01:27:50;;;;;;;10.65;5.15;;;9.30;99.90;;;;;;5071203;28;20379;-71
2022/09/21 01:30:20;;;;;;;13.90;5.57;;;9.20;99.90;;;;;;5070601;28;20398;-71
2022/09/21 01:33:08;;;;;;;10.27;5.00;;;9.10;99.90;;;;;;5070343;28;20383;-70
2022/09/21 01:35:42;;;;;;;8.32;5.15;;;9.10;99.90;;;;;;5070775;28;20956;-71
2022/09/21 01:38:14;;;;;;;12.33;5.67;;;9.10;99.90;;;;;;5070808;28;20432;-71
2022/09/21 01:40:44;;;;;;;14.13;5.38;;;9.00;99.90;;;;;;5070554;28;20906;-71
2022/09/21 01:43:17;;;;;;;9.90;5.38;;;8.90;99.90;;;;;;5070074;28;20470;-72
2022/09/21 01:45:50;;;;;;;19.40;9.47;;;8.80;99.90;;;;;;5070701;28;21113;-71
2022/09/21 01:48:19;;;;;;;17.90;7.55;;;8.70;99.90;;;;;;5070474;28;20459;-71
2022/09/21 01:50:49;;;;;;;11.88;6.30;;;8.70;99.90;;;;;;5070473;28;20382;-72
2022/09/21 01:53:31;;;;;;;10.98;5.80;;;8.60;99.90;;;;;;5070436;28;20411;-72
2022/09/21 01:56:20;;;;;;;12.68;5.53;;;8.60;99.90;;;;;;5074504;28;20411;-72
2022/09/21 01:59:13;;;;;;;13.70;6.10;;;8.70;99.90;;;;;;5056307;28;20391;-71
2022/09/21 02:01:47;;;;;;;12.00;5.60;;;8.70;99.90;;;;;;5073676;28;20766;-71
2022/09/21 02:04:13;;;;;;;15.00;5.75;;;8.70;99.90;;;;;;5075103;28;20384;-71
2022/09/21 02:06:43;;;;;;;12.30;6.40;;;8.60;99.90;;;;;;5074312;28;20494;-71
2022/09/21 02:09:09;;;;;;;13.15;6.40;;;8.50;99.90;;;;;;5074040;28;20372;-71
2022/09/21 02:11:43;;;;;;;15.70;7.15;;;8.40;99.90;;;;;;5073890;28;20391;-71
2022/09/21 02:14:21;;;;;;;10.45;5.78;;;8.30;99.90;;;;;;5074918;28;20401;-72
2022/09/21 02:17:10;;;;;;;12.95;5.20;;;8.30;99.90;;;;;;5057395;28;20387;-72
2022/09/21 02:20:05;;;;;;;15.37;6.83;;;8.20;99.90;;;;;;5063089;28;20391;-72
2022/09/21 02:22:37;;;;;;;12.43;6.60;;;8.20;99.90;;;;;;5063501;28;20391;-72
2022/09/21 02:25:14;;;;;;;11.15;6.60;;;8.20;99.90;;;;;;5076583;28;20908;-71
2022/09/21 02:27:51;;;;;;;15.93;6.57;;;8.20;99.90;;;;;;5073932;28;20383;-71
2022/09/21 02:30:25;;;;;;;14.43;6.20;;;8.30;99.90;;;;;;5055527;28;20415;-71
2022/09/21 02:33:09;;;;;;;19.10;7.35;;;8.20;99.90;;;;;;5055065;28;20388;-72
2022/09/21 02:35:37;;;;;;;15.20;7.28;;;8.20;99.90;;;;;;5055368;28;20563;-70
2022/09/21 02:38:28;;;;;;;15.93;7.35;;;8.20;99.90;;;;;;5073268;28;20388;-72
2022/09/21 02:40:57;;;;;;;14.20;6.53;;;8.10;99.90;;;;;;5072847;28;20387;-72
2022/09/21 02:43:28;;;;;;;17.35;7.80;;;8.10;99.90;;;;;;5073325;28;20682;-72
2022/09/21 02:45:59;;;;;;;15.40;6.70;;;8.00;99.90;;;;;;5073170;28;20813;-72
2022/09/21 02:48:48;;;;;;;16.55;7.20;;;8.00;99.90;;;;;;5073433;28;20379;-72
2022/09/21 02:51:21;;;;;;;18.15;8.38;;;8.00;99.90;;;;;;5073122;28;20459;-71
2022/09/21 02:53:51;;;;;;;26.02;9.57;;;8.10;99.90;;;;;;5071859;28;20499;-71
2022/09/21 02:56:17;;;;;;;19.48;9.38;;;8.10;99.90;;;;;;5072846;28;20399;-72
2022/09/21 02:58:48;;;;;;;15.10;9.07;;;8.30;99.90;;;;;;5072899;28;20461;-75
2022/09/21 03:01:15;;;;;;;23.90;10.45;;;8.40;99.90;;;;;;5073350;28;20471;-74
2022/09/21 03:03:41;;;;;;;21.60;9.52;;;8.40;99.90;;;;;;5073947;28;20387;-74
2022/09/21 03:06:06;;;;;;;23.27;10.67;;;8.30;99.90;;;;;;5073784;28;20415;-73
2022/09/21 03:08:32;;;;;;;19.00;9.83;;;8.20;99.90;;;;;;5077318;28;20400;-73
2022/09/21 03:10:57;;;;;;;26.23;10.27;;;8.20;99.90;;;;;;5075778;28;20375;-70
2022/09/21 03:13:24;;;;;;;18.90;10.67;;;8.30;99.90;;;;;;5075043;28;20421;-71
2022/09/21 03:15:57;;;;;;;21.50;10.52;;;8.20;99.90;;;;;;5078083;28;20399;-72
2022/09/21 03:18:23;;;;;;;22.30;10.80;;;8.10;99.90;;;;;;5082732;28;20380;-72
2022/09/21 03:20:49;;;;;;;21.60;10.63;;;8.00;99.90;;;;;;5087924;28;20387;-72
2022/09/21 03:23:14;;;;;;;21.05;10.70;;;7.90;99.90;;;;;;5083928;28;20376;-73
2022/09/21 03:25:44;;;;;;;23.10;10.53;;;8.00;99.90;;;;;;5089307;28;20800;-72
2022/09/21 03:28:12;;;;;;;21.20;10.20;;;8.10;99.90;;;;;;5092274;28;20894;-72
2022/09/21 03:30:37;;;;;;;25.05;11.05;;;8.10;99.90;;;;;;5091299;28;20388;-72
2022/09/21 03:33:04;;;;;;;21.63;10.80;;;8.10;99.90;;;;;;5090554;28;20429;-71
2022/09/21 03:35:32;;;;;;;21.43;10.50;;;7.90;99.90;;;;;;5085993;28;20871;-73
2022/09/21 03:37:58;;;;;;;21.87;10.60;;;7.80;99.90;;;;;;5079218;28;20485;-70
2022/09/21 03:40:25;;;;;;;24.80;11.77;;;7.70;99.90;;;;;;5076611;28;20810;-71
2022/09/21 03:42:51;;;;;;;18.83;11.10;;;7.70;99.90;;;;;;5076723;28;20510;-72
2022/09/21 03:45:16;;;;;;;20.47;10.73;;;7.70;99.90;;;;;;5077595;28;20419;-72
2022/09/21 03:47:42;;;;;;;23.90;11.60;;;7.70;99.90;;;;;;5075471;28;20430;-71
2022/09/21 03:50:08;;;;;;;21.13;11.55;;;7.70;99.90;;;;;;5055024;28;20420;-71
2022/09/21 03:52:36;;;;;;;22.65;11.00;;;7.70;99.90;;;;;;5072406;28;20380;-71
2022/09/21 03:55:05;;;;;;;19.70;10.90;;;7.70;99.90;;;;;;5072661;28;20427;-71
2022/09/21 03:57:32;;;;;;;20.92;11.10;;;7.60;99.90;;;;;;5072810;28;20418;-72
2022/09/21 03:59:58;;;;;;;18.33;10.20;;;7.50;99.90;;;;;;5072524;28;20376;-72
2022/09/21 04:02:24;;;;;;;21.23;11.88;;;7.50;99.90;;;;;;5068076;22;20441;-71
2022/09/21 04:04:49;;;;;;;21.60;11.77;;;7.50;99.90;;;;;;5031401;28;20415;-71
2022/09/21 04:07:15;;;;;;;19.25;12.50;;;7.40;99.90;;;;;;5031746;28;20391;-71
2022/09/21 04:09:41;;;;;;;24.17;11.60;;;7.30;99.90;;;;;;5013996;28;20743;-71
2022/09/21 04:12:06;;;;;;;20.90;11.37;;;7.30;99.90;;;;;;5031151;28;20429;-71
2022/09/21 04:14:33;;;;;;;24.48;11.35;;;7.30;99.90;;;;;;5031484;28;20414;-71
2022/09/21 04:16:58;;;;;;;22.58;11.60;;;7.40;99.90;;;;;;5013777;28;20894;-72
2022/09/21 04:19:24;;;;;;;24.35;12.95;;;7.30;99.90;;;;;;5031582;28;20402;-72
2022/09/21 04:21:54;;;;;;;21.42;11.70;;;7.30;99.90;;;;;;5031436;28;20713;-72
2022/09/21 04:24:21;;;;;;;20.45;11.95;;;7.30;99.90;;;;;;5031695;28;20425;-72
2022/09/21 04:26:47;;;;;;;20.43;12.50;;;7.40;99.90;;;;;;5033031;28;20402;-71
2022/09/21 04:29:14;;;;;;;21.50;11.52;;;7.30;99.90;;;;;;5033514;28;20419;-72
2022/09/21 04:31:39;;;;;;;24.80;11.63;;;7.30;99.90;;;;;;5033092;28;20394;-72
2022/09/21 04:34:05;;;;;;;20.70;11.45;;;7.40;99.90;;;;;;5043882;28;20437;-73
2022/09/21 04:36:31;;;;;;;23.45;11.90;;;7.40;99.90;;;;;;5053317;28;20398;-73
2022/09/21 04:39:00;;;;;;;27.65;11.50;;;7.30;99.90;;;;;;5045940;28;20471;-71
2022/09/21 04:41:26;;;;;;;24.00;11.27;;;7.30;99.90;;;;;;5040860;28;20387;-71
2022/09/21 04:43:51;;;;;;;21.80;11.70;;;7.20;99.90;;;;;;5031706;28;20856;-72
2022/09/21 04:46:19;;;;;;;20.77;12.00;;;7.30;99.90;;;;;;5031382;28;20403;-72
2022/09/21 04:48:45;;;;;;;21.63;11.35;;;7.30;99.90;;;;;;5030603;28;20386;-72
2022/09/21 04:51:12;;;;;;;22.27;11.38;;;7.30;99.90;;;;;;5030313;28;20957;-72
2022/09/21 04:53:40;;;;;;;22.65;12.10;;;7.30;99.90;;;;;;5030652;28;20803;-71
2022/09/21 04:56:07;;;;;;;27.75;13.38;;;7.30;99.90;;;;;;5030811;28;20855;-72
2022/09/21 04:58:33;;;;;;;29.33;14.70;;;7.30;99.90;;;;;;5014116;28;20950;-73
2022/09/21 05:00:59;;;;;;;28.73;14.45;;;7.20;99.90;;;;;;5031696;28;20474;-72
2022/09/21 05:03:25;;;;;;;23.13;14.50;;;7.20;99.90;;;;;;5031263;28;20414;-72
2022/09/21 05:05:55;;;;;;;30.10;14.15;;;7.20;99.90;;;;;;5031035;28;20403;-71
2022/09/21 05:10:01;;;;;;;27.83;14.25;;;7.10;99.90;;;;;;5031180;28;20383;-72
2022/09/21 05:11:14;;;;;;;25.48;14.25;;;7.10;99.90;;;;;;5030810;28;20498;-72
2022/09/21 05:13:41;;;;;;;27.23;14.30;;;7.30;99.90;;;;;;5031132;28;20521;-74
2022/09/21 05:16:07;;;;;;;30.17;16.73;;;7.30;99.90;;;;;;5030816;28;20844;-72
2022/09/21 05:18:32;;;;;;;27.08;15.40;;;7.30;99.90;;;;;;5030915;28;20402;-73
2022/09/21 05:21:00;;;;;;;26.65;14.80;;;7.20;99.90;;;;;;5031109;28;20859;-72
2022/09/21 05:23:30;;;;;;;26.75;15.32;;;7.20;99.90;;;;;;5031283;28;20399;-73
2022/09/21 05:25:57;;;;;;;31.27;15.75;;;7.20;99.90;;;;;;5030874;28;20439;-72
2022/09/21 05:28:23;;;;;;;29.55;18.08;;;7.10;99.90;;;;;;5013495;28;20474;-72
2022/09/21 05:30:51;;;;;;;26.73;15.02;;;7.10;99.90;;;;;;5034857;28;20809;-72
2022/09/21 05:33:19;;;;;;;29.60;15.90;;;7.20;99.90;;;;;;5016739;28;20391;-72
2022/09/21 05:35:58;;;;;;;31.50;17.07;;;7.20;99.90;;;;;;5035005;28;20474;-73
2022/09/21 05:38:24;;;;;;;31.73;18.20;;;7.20;99.90;;;;;;5034613;28;20386;-72
2022/09/21 05:40:49;;;;;;;41.53;23.55;;;7.20;99.90;;;;;;5034395;28;20398;-72
2022/09/21 05:43:16;;;;;;;33.63;19.63;;;7.30;99.90;;;;;;5034179;28;20949;-73
2022/09/21 05:45:45;;;;;;;33.58;17.25;;;7.30;99.90;;;;;;5034402;28;20477;-72
2022/09/21 05:48:20;;;;;;;29.50;16.00;;;7.30;99.90;;;;;;5034162;28;20379;-72
2022/09/21 05:50:59;;;;;;;32.13;18.30;;;7.30;99.90;;;;;;5016035;28;20390;-72
2022/09/21 05:53:30;;;;;;;31.83;17.63;;;7.40;99.90;;;;;;5034441;28;20437;-72
2022/09/21 05:55:59;;;;;;;34.08;16.52;;;7.40;99.90;;;;;;5033835;28;20478;-72
2022/09/21 05:58:31;;;;;;;33.53;16.77;;;7.40;99.90;;;;;;5034095;28;20387;-72
2022/09/21 06:01:24;;;;;;;35.63;16.90;;;7.50;99.90;;;;;;5033570;28;20389;-72
2022/09/21 06:03:52;;;;;;;32.22;16.58;;;7.70;99.90;;;;;;5033827;28;20383;-72
2022/09/21 06:06:19;;;;;;;33.15;17.70;;;7.90;99.90;;;;;;5033820;28;20433;-72
2022/09/21 06:08:45;;;;;;;36.53;18.30;;;8.00;99.90;;;;;;5033488;28;20375;-72
2022/09/21 06:11:11;;;;;;;36.10;16.67;;;8.00;99.90;;;;;;5033675;28;20731;-72
2022/09/21 06:13:36;;;;;;;40.70;19.75;;;8.00;99.90;;;;;;5033691;28;20866;-72
2022/09/21 06:16:03;;;;;;;37.75;19.55;;;8.10;99.90;;;;;;5033735;28;20395;-72
2022/09/21 06:18:29;;;;;;;38.13;20.02;;;8.10;99.90;;;;;;5033808;28;20395;-72
2022/09/21 06:20:55;;;;;;;33.55;20.27;;;8.20;99.90;;;;;;5033421;28;20393;-72
2022/09/21 06:23:20;;;;;;;35.83;19.73;;;8.20;99.90;;;;;;5033578;28;20387;-72
2022/09/21 06:25:53;;;;;;;34.78;17.33;;;8.40;99.90;;;;;;5033218;28;20544;-72
2022/09/21 06:28:19;;;;;;;34.85;18.77;;;8.60;99.90;;;;;;5033880;28;20383;-73
2022/09/21 06:30:53;;;;;;;33.90;18.42;;;8.60;99.90;;;;;;5037900;28;20383;-73
2022/09/21 06:33:22;;;;;;;37.30;19.80;;;8.70;99.90;;;;;;5040551;28;20387;-73
2022/09/21 06:35:53;;;;;;;39.80;21.45;;;8.90;99.90;;;;;;5033297;28;20755;-72
2022/09/21 06:38:18;;;;;;;35.20;18.52;;;9.00;99.90;;;;;;5033437;28;20813;-71
2022/09/21 06:40:44;;;;;;;34.13;18.70;;;9.10;99.90;;;;;;5014277;28;20394;-72
2022/09/21 06:43:09;;;;;;;38.53;20.33;;;9.20;99.90;;;;;;5032709;28;20817;-72
2022/09/21 06:45:35;;;;;;;36.00;18.30;;;9.50;99.90;;;;;;5033091;28;20437;-72
2022/09/21 06:48:01;;;;;;;33.70;17.13;;;9.60;99.90;;;;;;5032689;28;20395;-71
2022/09/21 06:50:26;;;;;;;29.13;15.47;;;9.70;99.90;;;;;;5033013;28;20426;-73
2022/09/21 06:52:52;;;;;;;28.70;14.60;;;9.90;99.90;;;;;;5032687;28;20441;-72
2022/09/21 06:55:18;;;;;;;23.47;13.70;;;10.10;99.90;;;;;;5032673;28;20911;-72
2022/09/21 06:57:43;;;;;;;28.98;14.85;;;10.40;99.90;;;;;;5032824;28;20755;-72
2022/09/21 07:00:11;;;;;;;25.27;13.80;;;10.50;99.90;;;;;;5032742;28;20391;-71
2022/09/21 07:02:36;;;;;;;28.80;12.63;;;10.70;99.90;;;;;;5032532;28;20414;-72
2022/09/21 07:05:03;;;;;;;26.95;14.40;;;10.80;98.70;;;;;;5032657;28;20387;-72
2022/09/21 07:07:31;;;;;;;23.63;14.23;;;11.00;96.10;;;;;;5032623;28;20379;-72
2022/09/21 07:09:59;;;;;;;24.98;15.05;;;11.00;97.20;;;;;;5032463;28;20375;-73
2022/09/21 07:12:27;;;;;;;23.73;13.98;;;11.10;98.80;;;;;;5015239;28;20860;-72
2022/09/21 07:14:52;;;;;;;21.02;13.20;;;11.30;95.10;;;;;;5032792;28;20387;-72
2022/09/21 07:17:18;;;;;;;25.47;14.70;;;11.40;93.20;;;;;;5032820;28;20474;-74
2022/09/21 07:19:43;;;;;;;20.33;13.87;;;11.50;93.20;;;;;;5032811;28;20955;-72
2022/09/21 07:22:09;;;;;;;27.63;13.73;;;11.60;91.30;;;;;;5032091;28;20449;-72
2022/09/21 07:24:34;;;;;;;29.57;14.37;;;11.70;86.50;;;;;;5032217;28;20411;-71
2022/09/21 07:27:00;;;;;;;27.40;13.90;;;11.80;84.10;;;;;;5032251;28;20437;-72
2022/09/21 07:29:26;;;;;;;23.05;13.57;;;12.00;81.50;;;;;;5031727;28;20387;-73
2022/09/21 07:31:51;;;;;;;24.07;13.20;;;12.20;78.10;;;;;;5031778;28;20417;-72
2022/09/21 07:34:17;;;;;;;23.57;13.00;;;12.20;78.70;;;;;;5032336;28;20393;-74
2022/09/21 07:36:42;;;;;;;19.70;13.07;;;12.20;78.00;;;;;;5032568;28;20383;-73
2022/09/21 07:39:09;;;;;;;26.70;14.27;;;12.20;77.90;;;;;;5032448;28;20394;-73
2022/09/21 07:41:35;;;;;;;25.00;12.75;;;12.30;77.90;;;;;;5032550;28;20395;-72
2022/09/21 07:44:01;;;;;;;19.52;14.25;;;12.40;75.60;;;;;;5032429;28;20759;-72
2022/09/21 07:46:27;;;;;;;22.23;12.30;;;12.40;75.70;;;;;;5032212;28;20410;-71
2022/09/21 07:48:54;;;;;;;28.52;12.80;;;12.50;73.30;;;;;;5032314;28;20379;-72
2022/09/21 07:51:20;;;;;;;21.23;14.18;;;12.60;71.00;;;;;;5031978;28;20394;-71
2022/09/21 07:53:45;;;;;;;27.97;13.17;;;12.60;70.10;;;;;;5032549;28;20416;-72
2022/09/21 07:56:16;;;;;;;22.77;14.77;;;12.80;69.70;;;;;;5032852;28;20874;-72
2022/09/21 08:01:28;;;;;;;23.20;14.20;;;12.80;68.10;;;;;;5032078;28;20886;-72
2022/09/21 08:03:55;;;;;;;24.27;13.90;;;12.80;68.70;;;;;;5014382;28;20733;-72
2022/09/21 08:06:22;;;;;;;27.42;13.93;;;12.80;68.00;;;;;;5031955;28;20457;-73
2022/09/21 08:08:49;;;;;;;26.55;13.90;;;12.90;67.30;;;;;;5033220;28;20379;-73
2022/09/21 08:11:17;;;;;;;20.20;13.57;;;13.00;68.50;;;;;;5032924;28;20817;-73
2022/09/21 08:13:43;;;;;;;27.13;14.40;;;13.10;66.70;;;;;;5032457;28;20383;-73
2022/09/21 08:16:09;;;;;;;24.33;15.60;;;13.20;65.60;;;;;;5031531;28;20510;-72
2022/09/21 08:18:38;;;;;;;23.70;14.60;;;13.10;63.70;;;;;;5031538;28;20379;-72
2022/09/21 08:21:05;;;;;;;24.63;12.95;;;13.10;63.10;;;;;;5013539;28;20388;-72
2022/09/21 08:23:31;;;;;;;22.03;12.60;;;13.20;60.60;;;;;;5031381;28;20395;-72
2022/09/21 08:26:02;;;;;;;21.88;12.90;;;13.20;59.50;;;;;;5031314;28;20773;-73
2022/09/21 08:28:29;;;;;;;19.52;11.57;;;13.20;59.60;;;;;;5031662;28;20379;-71
2022/09/21 08:31:01;;;;;;;21.80;12.43;;;13.20;58.90;;;;;;5031026;28;20379;-72
2022/09/21 08:33:27;;;;;;;19.73;11.85;;;13.30;59.20;;;;;;5031240;28;20752;-73
2022/09/21 08:35:54;;;;;;;16.80;11.00;;;13.30;59.50;;;;;;5030907;28;20391;-72
2022/09/21 08:38:21;;;;;;;18.52;11.02;;;13.40;58.50;;;;;;5031349;28;20402;-73
2022/09/21 08:40:47;;;;;;;15.93;9.32;;;13.50;57.60;;;;;;5030997;28;20441;-72
2022/09/21 08:43:27;;;;;;;17.52;9.73;;;13.60;56.50;;;;;;5031115;28;20415;-72
2022/09/21 08:45:54;;;;;;;19.38;10.00;;;13.60;55.30;;;;;;5031004;28;20763;-72
2022/09/21 08:48:24;;;;;;;20.20;10.45;;;13.80;53.10;;;;;;5031217;28;20406;-73
2022/09/21 08:50:52;;;;;;;22.33;10.73;;;13.80;52.40;;;;;;5030905;28;20410;-73
2022/09/21 08:53:52;;;;;;;18.23;11.00;;;13.90;52.30;;;;;;5030837;28;20914;-72
2022/09/21 08:56:20;;;;;;;16.05;10.48;;;13.90;51.80;;;;;;4986587;28;20427;-72
2022/09/21 08:58:46;;;;;;;95.65;22.80;;;14.00;51.00;;;;;;5031838;28;20383;-73
2022/09/21 09:01:30;;;;;;;15.80;10.17;;;14.00;51.70;;;;;;5031425;28;20467;-72
2022/09/21 09:04:16;;;;;;;21.42;10.90;;;14.00;50.90;;;;;;5029789;28;20402;-72
2022/09/21 09:07:08;;;;;;;17.17;9.68;;;14.10;51.90;;;;;;5030463;28;20876;-73
2022/09/21 09:09:52;;;;;;;13.57;9.40;;;14.20;48.90;;;;;;5030825;28;20391;-73
2022/09/21 09:12:27;;;;;;;22.25;11.80;;;14.30;49.80;;;;;;5030446;28;20386;-71
2022/09/21 09:15:15;;;;;;;16.17;10.30;;;14.30;49.00;;;;;;5030586;28;20466;-73
2022/09/21 09:18:07;;;;;;;15.30;8.85;;;14.40;49.10;;;;;;5012767;28;20478;-72
2022/09/21 09:20:52;;;;;;;15.45;8.45;;;14.40;47.10;;;;;;5032790;28;20379;-74
2022/09/21 09:23:52;;;;;;;17.05;9.00;;;14.50;46.00;;;;;;5032018;28;20729;-72
2022/09/21 09:26:29;;;;;;;14.20;8.32;;;14.60;45.60;;;;;;5014177;28;20501;-73
2022/09/21 09:29:00;;;;;;;16.52;8.20;;;14.70;44.40;;;;;;5030393;28;20391;-73
2022/09/21 09:31:34;;;;;;;14.45;8.25;;;14.80;43.70;;;;;;5030726;28;20375;-73
2022/09/21 09:34:15;;;;;;;13.68;6.60;;;14.80;43.20;;;;;;5030881;28;20452;-72
2022/09/21 09:36:47;;;;;;;11.60;6.85;;;15.10;40.70;;;;;;5030750;28;20391;-73
2022/09/21 09:39:15;;;;;;;14.40;7.60;;;15.10;40.90;;;;;;5030542;28;20383;-72
2022/09/21 09:41:49;;;;;;;11.48;5.68;;;15.30;40.80;;;;;;5030270;28;20394;-73
2022/09/21 09:44:41;;;;;;;14.43;6.50;;;15.50;36.50;;;;;;5012793;28;20390;-72
2022/09/21 09:47:47;;;;;;;14.63;5.70;;;15.40;36.10;;;;;;5030352;28;20429;-72
2022/09/21 09:50:31;;;;;;;10.70;5.20;;;15.40;34.90;;;;;;5030436;28;20415;-73
2022/09/21 09:53:04;;;;;;;8.93;4.90;;;15.40;35.50;;;;;;5012190;28;20448;-72
2022/09/21 09:55:39;;;;;;;9.98;3.92;;;15.50;33.70;;;;;;5030452;28;20448;-73
2022/09/21 09:58:15;;;;;;;13.10;3.97;;;15.50;33.40;;;;;;5030534;28;20474;-73
2022/09/21 10:00:41;;;;;;;9.67;4.03;;;15.70;32.40;;;;;;5030273;28;20721;-72
2022/09/21 10:03:22;;;;;;;8.67;4.73;;;15.70;31.20;;;;;;5030739;28;20406;-73
2022/09/21 10:05:48;;;;;;;11.70;4.25;;;15.60;31.80;;;;;;5031170;28;20410;-76
2022/09/21 10:08:27;;;;;;;11.07;5.60;;;15.70;32.30;;;;;;5031127;28;20396;-73
2022/09/21 10:10:53;;;;;;;12.13;4.57;;;15.80;32.30;;;;;;5030092;28;20468;-72
2022/09/21 10:13:27;;;;;;;7.73;4.13;;;16.00;31.00;;;;;;5031085;28;20444;-73
2022/09/21 10:16:23;;;;;;;8.57;3.70;;;16.00;30.20;;;;;;5033610;28;20415;-72
2022/09/21 10:18:57;;;;;;;10.45;4.80;;;16.00;29.60;;;;;;5034647;28;20448;-74
2022/09/21 10:21:32;;;;;;;9.25;4.63;;;16.00;30.70;;;;;;5034789;28;20880;-73
2022/09/21 10:24:11;;;;;;;10.13;3.47;;;16.00;30.60;;;;;;5034385;28;20390;-73
2022/09/21 10:26:49;;;;;;;8.32;3.60;;;16.30;27.90;;;;;;5033938;28;20399;-73
2022/09/21 10:29:28;;;;;;;12.75;3.58;;;16.50;28.80;;;;;;5034594;28;20852;-74
2022/09/21 10:32:02;;;;;;;6.45;3.13;;;16.60;28.30;;;;;;5035647;28;20472;-72
2022/09/21 10:34:30;;;;;;;9.75;3.28;;;16.70;27.00;;;;;;5035855;28;20454;-73
2022/09/21 10:36:58;;;;;;;10.50;3.65;;;16.70;27.80;;;;;;5034443;28;20448;-73
2022/09/21 10:39:27;;;;;;;11.20;3.25;;;16.60;28.20;;;;;;5033503;28;20406;-73
2022/09/21 10:42:12;;;;;;;10.13;3.00;;;16.60;28.00;;;;;;5033782;28;20387;-74
2022/09/21 10:44:59;;;;;;;8.93;2.90;;;16.50;26.90;;;;;;5034120;28;20556;-74
2022/09/21 10:47:40;;;;;;;7.65;2.83;;;16.40;26.40;;;;;;5019364;28;20407;-74
2022/09/21 10:50:45;;;;;;;6.85;2.55;;;16.50;26.60;;;;;;5034063;28;20387;-73
2022/09/21 10:53:13;;;;;;;9.45;2.60;;;16.70;26.20;;;;;;4994064;28;20816;-73
2022/09/21 10:56:01;;;;;;;8.27;2.53;;;16.70;25.00;;;;;;5033267;28;20384;-72
2022/09/21 10:58:27;;;;;;;5.88;1.92;;;16.90;24.90;;;;;;5033367;28;20462;-73
2022/09/21 11:00:55;;;;;;;5.85;2.20;;;17.20;23.30;;;;;;5015897;28;20428;-73
2022/09/21 11:03:38;;;;;;;8.60;2.20;;;17.20;22.60;;;;;;5033510;28;20472;-74
2022/09/21 11:06:13;;;;;;;4.37;2.33;;;17.10;22.10;;;;;;5033378;28;20468;-74
2022/09/21 11:09:05;;;;;;;7.03;1.70;;;17.10;22.40;;;;;;5034349;28;20379;-74
2022/09/21 11:11:54;;;;;;;6.40;1.80;;;17.20;20.60;;;;;;5031501;28;20434;-74
2022/09/21 11:14:25;;;;;;;9.40;2.95;;;17.10;21.30;;;;;;5033763;28;20395;-73
2022/09/21 11:17:15;;;;;;;9.07;2.40;;;17.30;22.30;;;;;;5033606;28;20733;-74
2022/09/21 11:19:53;;;;;;;7.20;2.50;;;17.40;21.60;;;;;;4993365;28;20484;-72
2022/09/21 11:22:41;;;;;;;7.07;2.27;;;17.20;21.00;;;;;;5033552;28;20390;-73
2022/09/21 11:25:32;;;;;;;10.00;2.90;;;17.20;19.60;;;;;;5033046;28;20383;-74
2022/09/21 11:28:13;;;;;;;8.38;2.90;;;17.00;20.60;;;;;;5032423;28;20447;-72
2022/09/21 11:31:00;;;;;;;8.55;2.88;;;17.00;21.20;;;;;;5035330;28;20463;-72
2022/09/21 11:33:44;;;;;;;7.32;2.30;;;17.20;20.40;;;;;;5033285;28;20384;-73
2022/09/21 11:36:30;;;;;;;10.35;2.63;;;17.40;20.60;;;;;;5034494;28;20390;-73
2022/09/21 11:39:17;;;;;;;6.20;2.30;;;17.50;19.40;;;;;;5036394;28;20802;-74
2022/09/21 11:41:56;;;;;;;7.20;1.85;;;17.70;18.90;;;;;;5034897;28;20379;-73
2022/09/21 11:44:28;;;;;;;8.20;2.20;;;17.60;18.20;;;;;;5035487;28;20422;-74
2022/09/21 11:47:08;;;;;;;6.53;2.35;;;17.60;18.90;;;;;;5017562;28;20399;-72
2022/09/21 11:49:57;;;;;;;8.00;3.03;;;17.70;18.80;;;;;;5035487;28;20907;-73
2022/09/21 11:52:50;;;;;;;3.95;2.00;;;18.10;18.10;;;;;;5036344;28;20383;-73
2022/09/21 11:55:35;;;;;;;6.67;2.40;;;18.40;17.10;;;;;;5035184;28;20384;-74
2022/09/21 11:58:18;;;;;;;11.20;3.20;;;18.70;17.50;;;;;;5035870;28;20383;-73
2022/09/21 12:00:55;;;;;;;6.50;3.20;;;18.90;15.90;;;;;;5035589;28;20402;-74
2022/09/21 12:03:34;;;;;;;5.22;1.88;;;18.90;15.80;;;;;;5035826;28;20403;-73
2022/09/21 12:06:27;;;;;;;7.03;1.77;;;19.00;15.40;;;;;;5034827;28;20413;-71
2022/09/21 12:09:08;;;;;;;5.45;2.20;;;19.10;14.30;;;;;;5037384;28;20443;-75
2022/09/21 12:11:47;;;;;;;5.68;1.95;;;19.10;13.90;;;;;;5037797;28;20390;-74
2022/09/21 12:14:36;;;;;;;7.80;2.00;;;18.90;14.20;;;;;;5037013;28;20437;-74
2022/09/21 12:17:26;;;;;;;6.75;2.10;;;18.90;13.70;;;;;;5034407;28;20386;-74
2022/09/21 12:20:05;;;;;;;5.80;2.70;;;19.10;13.00;;;;;;5034039;28;20437;-73
2022/09/21 12:22:39;;;;;;;4.00;2.10;;;19.10;14.20;;;;;;5035139;28;20470;-74
2022/09/21 12:25:18;;;;;;;5.90;2.75;;;19.00;13.40;;;;;;5035457;28;20394;-74
2022/09/21 12:27:48;;;;;;;6.22;2.00;;;18.80;13.20;;;;;;5035690;28;20421;-74
2022/09/21 12:30:17;;;;;;;9.68;2.60;;;19.30;13.40;;;;;;5035284;28;20437;-74
2022/09/21 12:33:08;;;;;;;6.00;2.10;;;19.20;14.20;;;;;;5033552;28;20379;-74
2022/09/21 12:35:47;;;;;;;10.45;2.50;;;19.10;15.60;;;;;;5032425;28;20458;-74
2022/09/21 12:38:39;;;;;;;7.22;2.45;;;19.10;16.70;;;;;;5032183;28;20829;-73
2022/09/21 12:41:45;;;;;;;7.63;2.72;;;19.20;16.00;;;;;;5033847;28;20484;-74
2022/09/21 12:44:50;;;;;;;6.60;2.25;;;19.10;15.70;;;;;;5034550;28;20776;-73
2022/09/21 12:47:22;;;;;;;8.45;2.42;;;18.90;15.90;;;;;;5034789;28;20896;-74
2022/09/21 12:49:50;;;;;;;6.45;2.38;;;18.70;16.10;;;;;;5033033;28;20402;-74
2022/09/21 12:52:24;;;;;;;9.60;2.50;;;18.60;16.60;;;;;;5034013;28;20383;-74
2022/09/21 12:55:09;;;;;;;11.55;2.67;;;18.30;17.30;;;;;;5033616;28;20372;-74
2022/09/21 12:57:52;;;;;;;5.47;2.05;;;18.30;17.10;;;;;;5032830;28;20470;-75
2022/09/21 13:00:23;;;;;;;7.95;3.13;;;18.30;16.80;;;;;;5032044;28;20409;-72
2022/09/21 13:02:54;;;;;;;5.30;2.00;;;18.30;17.90;;;;;;5049787;28;20408;-73
2022/09/21 13:05:35;;;;;;;7.78;2.30;;;18.30;17.40;;;;;;5054043;28;20384;-73
2022/09/21 13:08:11;;;;;;;8.93;3.13;;;18.20;17.40;;;;;;5052752;28;20381;-74
2022/09/21 13:11:06;;;;;;;14.45;3.60;;;18.20;18.00;;;;;;5053530;28;20397;-75
2022/09/21 13:13:51;;;;;;;6.57;2.60;;;18.40;17.40;;;;;;5033832;28;20424;-73